Time;durP1;ratioP1;P1;durP2;ratioP2;P2;SDS_P1;SDS_P2;PMS_P1;PMS_P2;Temp;Humidity;BMP_temperature;BMP_pressure;BME280_temperature;BME280_humidity;BME280_pressure;Samples;Min_cycle;Max_cycle;Signal;HPM_P1;HPM_P2
2022/05/10 00:01:38;;;;;;;30.38;19.38;;;;;;;14.93;80.84;101877.41;5112080;28;20016;-68
2022/05/10 00:04:06;;;;;;;30.55;19.65;;;;;;;14.90;80.99;101872.06;5112353;28;20023;-68
2022/05/10 00:06:38;;;;;;;29.00;19.35;;;;;;;14.86;81.75;101880.03;5112644;28;20046;-67
2022/05/10 00:09:05;;;;;;;28.33;19.02;;;;;;;14.84;82.14;101868.47;5112194;28;20028;-68
2022/05/10 00:11:31;;;;;;;28.83;19.52;;;;;;;14.72;83.05;101869.34;5111911;28;20043;-66
2022/05/10 00:13:56;;;;;;;28.63;19.20;;;;;;;14.69;83.47;101866.66;5112348;28;20046;-68
2022/05/10 00:16:22;;;;;;;29.75;19.92;;;;;;;14.63;84.21;101860.47;5112666;28;20020;-67
2022/05/10 00:18:48;;;;;;;29.95;19.90;;;;;;;14.63;84.69;101868.44;5111837;28;20032;-67
2022/05/10 00:21:19;;;;;;;30.85;19.48;;;;;;;14.59;85.10;101866.63;5112740;28;20096;-67
2022/05/10 00:23:44;;;;;;;27.88;19.67;;;;;;;14.63;85.21;101856.88;5110365;28;20024;-68
2022/05/10 00:26:09;;;;;;;28.40;20.23;;;;;;;14.60;85.44;101847.09;5112557;28;20571;-67
2022/05/10 00:28:35;;;;;;;30.10;20.27;;;;;;;14.54;86.19;101849.72;5111770;28;20497;-64
2022/05/10 00:31:00;;;;;;;30.02;20.58;;;;;;;14.47;86.41;101846.19;5112459;28;20373;-67
2022/05/10 00:33:27;;;;;;;30.38;21.52;;;;;;;14.52;86.69;101840.88;5111070;28;20019;-67
2022/05/10 00:35:54;;;;;;;28.70;20.15;;;;;;;14.40;87.51;101846.13;5112132;28;20028;-67
2022/05/10 00:38:22;;;;;;;30.75;20.35;;;;;;;14.35;87.61;101847.88;5112036;28;20547;-67
2022/05/10 00:40:47;;;;;;;33.15;20.98;;;;;;;14.37;87.67;101838.13;5111957;28;20444;-68
2022/05/10 00:43:27;;;;;;;29.95;20.33;;;;;;;14.33;88.06;101837.25;5110803;28;20055;-68
2022/05/10 00:45:56;;;;;;;30.80;20.33;;;;;;;14.27;88.81;101838.09;5109689;28;20076;-67
2022/05/10 00:48:45;;;;;;;29.90;20.48;;;;;;;14.20;88.60;101840.69;5113249;28;20478;-68
2022/05/10 00:51:44;;;;;;;30.77;20.48;;;;;;;14.20;88.07;101840.69;5118342;28;20027;-67
2022/05/10 00:54:37;;;;;;;28.55;19.63;;;;;;;14.14;87.93;101841.59;5117073;28;20038;-68
2022/05/10 00:57:02;;;;;;;;;;;;;;;14.22;83.93;101829.19;5116640;28;20051;-67
2022/05/10 00:59:39;;;;;;;29.07;19.20;;;;;;;14.21;88.32;101829.19;5119238;27;19918;-67
2022/05/10 01:02:15;;;;;;;28.40;19.55;;;;;;;14.15;89.38;101832.72;5117121;28;20265;-67
2022/05/10 01:04:49;;;;;;;28.65;19.83;;;;;;;14.04;89.06;101824.69;5117998;27;20065;-67
2022/05/10 01:07:22;;;;;;;27.63;19.67;;;;;;;13.95;90.28;101822.88;5118364;27;20028;-67
2022/05/10 01:09:59;;;;;;;29.52;19.90;;;;;;;13.88;92.11;101818.38;5118148;27;20019;-67
2022/05/10 01:12:41;;;;;;;29.10;20.00;;;;;;;13.83;93.05;101820.13;5117573;28;20037;-68
2022/05/10 01:15:15;;;;;;;29.48;19.60;;;;;;;13.73;94.41;101812.97;5118355;27;20016;-68
2022/05/10 01:17:40;;;;;;;28.67;19.48;;;;;;;13.63;95.35;101806.72;5118305;27;20027;-67
2022/05/10 01:20:08;;;;;;;28.48;19.77;;;;;;;13.67;95.66;101816.47;5118606;28;20035;-66
2022/05/10 01:22:47;;;;;;;29.30;19.70;;;;;;;13.54;97.03;101812.84;5118443;27;20027;-64
2022/05/10 01:25:46;;;;;;;28.58;19.70;;;;;;;13.60;97.23;101812.91;5116481;28;20096;-64
2022/05/10 01:28:30;;;;;;;28.60;19.77;;;;;;;13.58;97.58;101808.44;5116600;28;20030;-64
2022/05/10 01:31:01;;;;;;;27.98;19.83;;;;;;;13.49;98.31;101803.06;5119118;28;20106;-67
2022/05/10 01:33:30;;;;;;;27.92;20.13;;;;;;;13.32;99.60;101793.16;5118047;27;20019;-68
2022/05/10 01:36:14;;;;;;;31.17;20.20;;;;;;;13.29;100.00;101795.78;5118207;27;20035;-66
2022/05/10 01:39:01;;;;;;;28.33;19.85;;;;;;;13.30;100.00;101802.00;5118385;27;20024;-64
2022/05/10 01:41:45;;;;;;;31.70;20.33;;;;;;;13.39;100.00;101791.47;5117883;28;20035;-64
2022/05/10 01:44:38;;;;;;;31.10;20.75;;;;;;;13.43;100.00;101786.19;5118006;28;20034;-64
2022/05/10 01:47:13;;;;;;;;;;;;;;;13.51;96.25;101782.72;5131322;28;20035;-64
2022/05/10 01:50:03;;;;;;;29.63;19.67;;;;;;;13.47;99.18;101787.13;5134132;27;19955;-64
2022/05/10 01:52:44;;;;;;;30.67;21.17;;;;;;;13.30;100.00;101775.44;5127905;28;20106;-64
2022/05/10 01:55:36;;;;;;;29.23;20.38;;;;;;;13.23;100.00;101775.38;5118481;27;20054;-64
2022/05/10 01:58:07;;;;;;;30.75;21.15;;;;;;;13.18;100.00;101773.59;5117669;28;20501;-67
2022/05/10 02:00:33;;;;;;;30.60;21.13;;;;;;;13.10;100.00;101770.84;5114534;28;20039;-68
2022/05/10 02:03:14;;;;;;;30.25;20.77;;;;;;;13.08;100.00;101781.47;5115443;28;20024;-66
2022/05/10 02:05:58;;;;;;;30.50;20.80;;;;;;;12.93;100.00;101770.72;5112868;28;20547;-67
2022/05/10 02:08:32;;;;;;;29.05;20.33;;;;;;;12.87;100.00;101766.25;5113303;28;20110;-67
2022/05/10 02:11:04;;;;;;;30.33;20.85;;;;;;;12.79;100.00;101767.91;5113376;28;20370;-67
2022/05/10 02:13:37;;;;;;;32.28;21.02;;;;;;;12.80;100.00;101767.06;5113134;28;20537;-67
2022/05/10 02:16:10;;;;;;;29.13;20.40;;;;;;;12.83;100.00;101764.44;5115098;28;20031;-67
2022/05/10 02:18:47;;;;;;;28.35;19.55;;;;;;;12.88;100.00;101761.81;5114829;28;20035;-66
2022/05/10 02:21:17;;;;;;;28.75;20.85;;;;;;;12.89;100.00;101758.28;5111438;28;20416;-67
2022/05/10 02:24:04;;;;;;;29.58;20.17;;;;;;;12.90;100.00;101753.00;5115420;28;20414;-67
2022/05/10 02:26:37;;;;;;;30.52;20.60;;;;;;;12.94;100.00;101753.03;5115076;27;20501;-66
2022/05/10 02:29:16;;;;;;;28.58;19.92;;;;;;;12.96;100.00;101745.94;5116824;28;20076;-64
2022/05/10 02:34:39;;;;;;;30.08;21.33;;;;;;;13.08;100.00;101743.41;5123702;28;20035;-65
2022/05/10 02:37:04;;;;;;;29.77;22.40;;;;;;;13.06;100.00;101742.50;5134378;28;20102;-65
2022/05/10 02:39:30;;;;;;;30.88;22.50;;;;;;;13.11;100.00;101735.47;5133178;28;20051;-67
2022/05/10 02:41:55;;;;;;;31.73;22.38;;;;;;;13.02;100.00;101736.28;5128282;28;20024;-64
2022/05/10 02:44:20;;;;;;;30.23;22.10;;;;;;;13.07;100.00;101738.97;5128577;28;20068;-67
2022/05/10 02:46:46;;;;;;;31.75;22.17;;;;;;;13.06;100.00;101726.56;5132069;28;20027;-65
2022/05/10 02:49:11;;;;;;;30.10;22.02;;;;;;;13.02;100.00;101730.97;5131830;28;20039;-67
2022/05/10 02:51:36;;;;;;;31.70;22.65;;;;;;;13.10;100.00;101724.84;5123511;27;20443;-65
2022/05/10 02:54:02;;;;;;;31.55;22.75;;;;;;;13.00;100.00;101723.88;5120471;28;20031;-68
2022/05/10 02:56:29;;;;;;;49.60;24.42;;;;;;;12.89;100.00;101718.50;5130023;28;20048;-65
2022/05/10 02:59:19;;;;;;;34.35;22.13;;;;;;;12.96;100.00;101717.66;5126610;27;20077;-64
2022/05/10 03:02:00;;;;;;;34.88;23.08;;;;;;;12.85;100.00;101720.22;5128657;28;20018;-67
2022/05/10 03:04:36;;;;;;;38.35;23.20;;;;;;;12.77;100.00;101715.72;5128754;28;20024;-64
2022/05/10 03:07:04;;;;;;;36.85;23.52;;;;;;;12.79;100.00;101712.19;5128820;28;20027;-64
2022/05/10 03:09:30;;;;;;;38.35;23.60;;;;;;;12.86;100.00;101707.84;5125461;28;20028;-65
2022/05/10 03:11:55;;;;;;;33.25;22.30;;;;;;;12.95;100.00;101707.91;5114893;28;20024;-64
2022/05/10 03:14:20;;;;;;;36.90;23.60;;;;;;;12.98;100.00;101699.97;5113309;28;20051;-63
2022/05/10 03:16:45;;;;;;;34.42;22.80;;;;;;;12.99;100.00;101700.84;5113384;28;20024;-64
2022/05/10 03:19:11;;;;;;;35.88;23.73;;;;;;;13.02;100.00;101708.88;5112328;28;20114;-64
2022/05/10 03:21:38;;;;;;;35.83;23.27;;;;;;;13.02;100.00;101695.59;5113458;28;20027;-64
2022/05/10 03:24:04;;;;;;;36.88;24.48;;;;;;;12.90;100.00;101696.34;5113319;28;20069;-64
2022/05/10 03:26:30;;;;;;;33.45;23.65;;;;;;;12.93;100.00;101699.06;5114134;28;20015;-63
2022/05/10 03:28:56;;;;;;;34.28;23.23;;;;;;;12.97;100.00;101692.00;5110244;28;20039;-64
2022/05/10 03:31:23;;;;;;;34.58;23.45;;;;;;;12.96;100.00;101696.44;5113049;28;20027;-64
2022/05/10 03:34:53;;;;;;;35.00;23.23;;;;;;;12.95;100.00;101684.03;5113344;27;20028;-64
2022/05/10 03:36:34;;;;;;;35.97;24.67;;;;;;;12.97;100.00;101689.34;5112249;28;20088;-64
2022/05/10 03:39:00;;;;;;;31.92;23.33;;;;;;;12.94;100.00;101686.69;5113721;28;20019;-63
2022/05/10 03:41:26;;;;;;;32.33;22.77;;;;;;;13.04;100.00;101684.09;5112750;28;20104;-64
2022/05/10 03:43:51;;;;;;;34.40;24.67;;;;;;;13.07;100.00;101683.22;5112621;28;20052;-64
2022/05/10 03:46:16;;;;;;;33.35;23.70;;;;;;;12.97;100.00;101681.38;5113183;28;20043;-65
2022/05/10 03:48:42;;;;;;;33.72;23.58;;;;;;;13.04;100.00;101686.75;5112836;28;20031;-64
2022/05/10 03:51:07;;;;;;;34.53;23.52;;;;;;;13.06;100.00;101684.09;5113413;28;20116;-64
2022/05/10 03:53:32;;;;;;;35.72;24.02;;;;;;;13.03;100.00;101682.34;5112819;28;20054;-64
2022/05/10 03:55:57;;;;;;;34.33;24.00;;;;;;;13.05;100.00;101677.03;5113460;28;20064;-64
2022/05/10 03:58:23;;;;;;;32.97;24.08;;;;;;;13.02;100.00;101679.69;5113138;28;20047;-64
2022/05/10 04:00:48;;;;;;;34.33;24.23;;;;;;;13.05;100.00;101674.38;5112832;28;20520;-63
2022/05/10 04:03:13;;;;;;;33.20;24.20;;;;;;;13.10;100.00;101675.28;5112313;28;20047;-63
2022/05/10 04:05:39;;;;;;;33.40;24.15;;;;;;;13.05;100.00;101674.38;5113237;28;20473;-64
2022/05/10 04:08:04;;;;;;;31.55;23.77;;;;;;;13.06;100.00;101666.44;5112920;27;20019;-63
2022/05/10 04:10:29;;;;;;;34.28;24.25;;;;;;;13.11;100.00;101668.25;5113194;28;20072;-64
2022/05/10 04:12:55;;;;;;;33.25;23.98;;;;;;;13.09;100.00;101668.19;5112990;28;20019;-66
2022/05/10 04:15:20;;;;;;;33.25;23.83;;;;;;;13.17;100.00;101669.16;5115249;28;20050;-66
2022/05/10 04:17:46;;;;;;;32.17;24.00;;;;;;;13.18;100.00;101662.97;5115065;27;20012;-64
2022/05/10 04:20:13;;;;;;;33.92;23.65;;;;;;;13.22;100.00;101672.72;5115726;28;20034;-66
2022/05/10 04:22:39;;;;;;;33.90;23.98;;;;;;;13.25;100.00;101667.44;5115311;28;20431;-65
2022/05/10 04:25:05;;;;;;;33.45;24.30;;;;;;;13.29;100.00;101675.41;5113489;28;20024;-65
2022/05/10 04:27:31;;;;;;;34.60;24.15;;;;;;;13.34;100.00;101666.66;5118090;28;20031;-66
2022/05/10 04:29:56;;;;;;;35.08;24.40;;;;;;;13.46;100.00;101664.94;5126089;28;20027;-65
2022/05/10 04:32:22;;;;;;;36.25;24.67;;;;;;;13.46;100.00;101665.81;5127656;28;20019;-66
2022/05/10 04:34:47;;;;;;;35.40;23.98;;;;;;;13.56;100.00;101670.31;5126424;28;20031;-66
2022/05/10 04:37:12;;;;;;;32.33;22.73;;;;;;;13.67;100.00;101661.50;5128671;28;20120;-66
2022/05/10 04:42:22;;;;;;;36.92;27.73;;;;;;;13.93;100.00;101657.16;5126615;28;20027;-67
2022/05/10 04:44:47;;;;;;;35.92;25.92;;;;;;;13.95;100.00;101652.75;5119293;28;20478;-76
2022/05/10 04:47:12;;;;;;;33.50;24.05;;;;;;;13.98;100.00;101658.94;5112606;27;20034;-69
2022/05/10 04:49:38;;;;;;;33.30;22.98;;;;;;;14.04;100.00;101654.56;5111649;28;20389;-72
2022/05/10 04:52:03;;;;;;;35.35;23.58;;;;;;;14.19;100.00;101650.16;5111393;28;20024;-70
2022/05/10 04:54:29;;;;;;;32.05;22.50;;;;;;;14.36;100.00;101650.16;5112626;28;20032;-68
2022/05/10 04:56:54;;;;;;;34.90;22.77;;;;;;;14.46;100.00;101651.97;5108545;28;20441;-70
2022/05/10 04:59:19;;;;;;;35.38;22.55;;;;;;;14.56;100.00;101648.44;5111481;28;20496;-74
2022/05/10 05:01:45;;;;;;;33.83;22.25;;;;;;;14.70;100.00;101650.25;5111903;28;20026;-66
2022/05/10 05:04:10;;;;;;;34.58;21.60;;;;;;;14.79;100.00;101650.22;5111939;28;20034;-66
2022/05/10 05:06:39;;;;;;;34.97;22.05;;;;;;;14.80;100.00;101646.69;5111842;28;20111;-67
2022/05/10 05:09:05;;;;;;;34.80;21.98;;;;;;;14.99;100.00;101650.22;5111658;28;20024;-66
2022/05/10 05:11:31;;;;;;;33.25;21.15;;;;;;;15.06;100.00;101651.13;5108360;28;20024;-68
2022/05/10 05:13:56;;;;;;;33.67;20.52;;;;;;;15.15;95.79;101656.41;5111789;28;20042;-72
2022/05/10 05:16:22;;;;;;;32.67;21.00;;;;;;;15.19;94.20;101643.97;5110673;28;20045;-66
2022/05/10 05:18:47;;;;;;;33.75;21.20;;;;;;;15.28;94.28;101659.94;5111608;28;20051;-66
2022/05/10 05:21:13;;;;;;;31.88;20.30;;;;;;;15.34;92.71;101652.81;5111256;28;20355;-66
2022/05/10 05:23:38;;;;;;;31.55;20.15;;;;;;;15.40;91.43;101659.91;5112224;28;20107;-66
2022/05/10 05:26:04;;;;;;;32.08;20.13;;;;;;;15.47;90.32;101658.13;5111651;28;20027;-75
2022/05/10 05:28:29;;;;;;;31.45;19.83;;;;;;;15.49;87.85;101654.56;5110911;28;20482;-72
2022/05/10 05:30:55;;;;;;;46.55;20.73;;;;;;;15.55;87.93;101660.75;5111491;28;20069;-71
2022/05/10 05:33:20;;;;;;;30.45;18.90;;;;;;;15.58;87.32;101658.97;5114125;27;20055;-66
2022/05/10 05:35:46;;;;;;;29.42;19.00;;;;;;;15.66;87.52;101654.47;5118227;28;20034;-64
2022/05/10 05:38:11;;;;;;;29.15;19.60;;;;;;;15.77;86.88;101653.56;5121416;28;20024;-65
2022/05/10 05:40:38;;;;;;;31.17;19.55;;;;;;;15.82;86.38;101654.47;5116604;28;20079;-66
2022/05/10 05:43:04;;;;;;;30.67;19.48;;;;;;;15.86;85.54;101658.91;5114892;28;20020;-65
2022/05/10 05:45:29;;;;;;;30.48;19.17;;;;;;;15.96;85.57;101660.63;5114463;28;20501;-71
2022/05/10 05:47:55;;;;;;;29.48;18.80;;;;;;;16.03;83.87;101657.03;5115077;28;20031;-73
2022/05/10 05:50:23;;;;;;;29.75;18.60;;;;;;;16.15;82.92;101657.81;5114675;27;20015;-70
2022/05/10 05:52:49;;;;;;;31.58;19.15;;;;;;;16.27;82.56;101655.09;5112589;28;20408;-73
2022/05/10 05:55:16;;;;;;;31.15;18.92;;;;;;;16.42;80.18;101647.91;5114401;28;20072;-71
2022/05/10 05:57:41;;;;;;;28.52;18.27;;;;;;;16.54;79.16;101646.03;5114848;28;20047;-69
2022/05/10 06:00:10;;;;;;;27.48;17.80;;;;;;;16.67;79.17;101637.91;5114908;28;20391;-71
2022/05/10 06:02:36;;;;;;;28.02;18.35;;;;;;;16.78;77.17;101633.38;5114596;28;20020;-69
2022/05/10 06:05:02;;;;;;;29.50;18.27;;;;;;;16.87;77.06;101632.41;5114172;28;20030;-69
2022/05/10 06:07:28;;;;;;;28.48;17.02;;;;;;;16.96;77.56;101634.13;5115219;28;20359;-69
2022/05/10 06:09:53;;;;;;;27.50;16.45;;;;;;;17.03;76.44;101641.19;5102218;28;20026;-65
2022/05/10 06:12:19;;;;;;;29.42;16.70;;;;;;;17.02;76.48;101637.63;5112520;28;20398;-67
2022/05/10 06:14:46;;;;;;;26.48;16.67;;;;;;;17.13;75.87;101634.84;5113961;28;20027;-71
2022/05/10 06:17:13;;;;;;;26.05;15.88;;;;;;;17.21;74.87;101641.00;5114256;28;20027;-71
2022/05/10 06:19:41;;;;;;;27.13;16.13;;;;;;;17.30;72.96;101642.69;5114534;28;20470;-74
2022/05/10 06:22:08;;;;;;;25.65;16.25;;;;;;;17.40;73.40;101638.09;5110733;28;20521;-64
2022/05/10 06:24:33;;;;;;;30.27;16.17;;;;;;;17.48;72.20;101640.72;5109148;27;20485;-65
2022/05/10 06:26:59;;;;;;;24.85;15.60;;;;;;;17.58;71.66;101645.03;5114918;28;20057;-67
2022/05/10 06:29:24;;;;;;;26.30;15.50;;;;;;;17.66;70.63;101634.25;5114759;28;20055;-64
2022/05/10 06:31:50;;;;;;;24.83;15.68;;;;;;;17.71;70.15;101635.94;5114606;28;20024;-64
2022/05/10 06:34:16;;;;;;;26.02;15.20;;;;;;;17.75;69.89;101632.34;5114551;28;20015;-65
2022/05/10 06:36:43;;;;;;;26.85;15.00;;;;;;;17.86;71.70;101632.19;5114104;28;20516;-65
2022/05/10 06:39:08;;;;;;;28.02;14.98;;;;;;;17.92;69.74;101618.75;5113977;28;20048;-66
2022/05/10 06:41:34;;;;;;;25.40;14.60;;;;;;;18.00;69.33;101625.78;5114817;28;20078;-64
2022/05/10 06:44:00;;;;;;;25.33;14.40;;;;;;;18.08;69.02;101630.13;5112875;28;20106;-64
2022/05/10 06:46:27;;;;;;;24.60;14.40;;;;;;;18.18;69.84;101627.31;5113455;27;20086;-65
2022/05/10 06:48:53;;;;;;;22.95;13.75;;;;;;;18.30;69.09;101624.44;5114386;28;20426;-64
2022/05/10 06:51:21;;;;;;;25.42;13.77;;;;;;;18.42;67.98;101621.59;5104493;28;20102;-64
2022/05/10 06:53:47;;;;;;;24.83;14.07;;;;;;;18.50;66.98;101607.22;5104696;27;20378;-64
2022/05/10 06:56:14;;;;;;;23.60;13.10;;;;;;;18.60;65.96;101619.53;5114517;28;20067;-66
2022/05/10 06:58:40;;;;;;;26.17;13.20;;;;;;;18.62;65.32;101612.34;5112390;28;20047;-67
2022/05/10 07:01:11;;;;;;;24.38;13.48;;;;;;;18.56;65.71;101607.97;5114145;28;20032;-64
2022/05/10 07:03:37;;;;;;;21.88;12.48;;;;;;;18.66;65.29;101618.53;5114020;28;20100;-64
2022/05/10 07:06:06;;;;;;;23.60;13.60;;;;;;;18.68;64.51;101620.25;5113290;28;20031;-64
2022/05/10 07:08:32;;;;;;;23.42;13.05;;;;;;;18.77;65.93;101608.50;5113458;28;20039;-65
2022/05/10 07:10:58;;;;;;;23.02;12.52;;;;;;;18.90;64.96;101609.19;5113211;27;20020;-64
2022/05/10 07:13:26;;;;;;;22.98;13.15;;;;;;;19.03;64.79;101605.38;5112905;28;20114;-64
2022/05/10 07:15:52;;;;;;;22.70;12.63;;;;;;;19.19;64.57;101599.75;5113343;28;20028;-65
2022/05/10 07:18:18;;;;;;;24.38;12.27;;;;;;;19.31;62.95;101608.44;5110360;28;20428;-64
2022/05/10 07:20:46;;;;;;;22.52;12.38;;;;;;;19.33;62.37;101600.34;5113026;28;20024;-64
2022/05/10 07:23:12;;;;;;;22.30;12.43;;;;;;;19.51;64.30;101601.75;5113250;28;20387;-65
2022/05/10 07:25:38;;;;;;;26.95;12.38;;;;;;;19.68;62.75;101596.03;5113345;28;20019;-65
2022/05/10 07:28:06;;;;;;;23.27;12.00;;;;;;;19.88;61.25;101597.41;5113144;28;20020;-64
2022/05/10 07:30:32;;;;;;;22.38;11.95;;;;;;;19.98;60.41;101597.19;5112844;28;20026;-65
2022/05/10 07:32:58;;;;;;;22.63;11.63;;;;;;;20.14;59.55;101592.34;5113711;28;20027;-64
2022/05/10 07:38:09;;;;;;;22.33;11.02;;;;;;;20.34;57.38;101597.25;5112881;28;20088;-64
2022/05/10 07:40:35;;;;;;;24.65;11.32;;;;;;;20.27;57.62;101600.09;5112372;28;20028;-65
2022/05/10 07:43:01;;;;;;;22.23;11.00;;;;;;;20.27;58.27;101584.91;5110331;28;20114;-65
2022/05/10 07:45:27;;;;;;;24.05;11.20;;;;;;;20.48;57.60;101583.47;5112808;28;20114;-64
2022/05/10 07:47:52;;;;;;;21.33;10.63;;;;;;;20.65;56.29;101592.88;5110896;28;20024;-65
2022/05/10 07:50:18;;;;;;;22.45;10.50;;;;;;;20.81;55.95;101588.91;5113297;28;20032;-65
2022/05/10 07:52:44;;;;;;;21.38;10.10;;;;;;;20.88;55.79;101593.22;5112792;27;20015;-65
2022/05/10 07:55:12;;;;;;;21.73;10.20;;;;;;;20.93;54.56;101581.47;5112413;28;20412;-65
2022/05/10 07:57:39;;;;;;;21.83;9.65;;;;;;;20.92;54.02;101588.63;5112132;28;20066;-65
2022/05/10 08:00:08;;;;;;;22.17;10.50;;;;;;;20.81;54.16;101582.66;5111982;28;20024;-65
2022/05/10 08:02:34;;;;;;;21.58;9.57;;;;;;;20.85;54.29;101581.66;5108964;28;20163;-64
2022/05/10 08:04:59;;;;;;;21.73;9.40;;;;;;;20.89;54.58;101578.81;5113070;28;20027;-66
2022/05/10 08:07:25;;;;;;;23.40;9.90;;;;;;;20.96;54.26;101587.63;5112991;28;20020;-65
2022/05/10 08:09:52;;;;;;;21.30;9.45;;;;;;;21.03;53.99;101591.03;5111844;28;20390;-66
2022/05/10 08:12:18;;;;;;;20.58;9.27;;;;;;;21.15;53.75;101587.13;5112059;28;20035;-65
2022/05/10 08:14:43;;;;;;;19.90;9.00;;;;;;;21.21;53.06;101589.63;5112224;28;20031;-66
2022/05/10 08:17:08;;;;;;;21.77;9.23;;;;;;;21.25;53.56;101584.09;5112429;28;20466;-66
2022/05/10 08:19:33;;;;;;;21.38;8.82;;;;;;;21.33;53.11;101591.94;5112490;28;20035;-67
2022/05/10 08:21:59;;;;;;;19.95;9.00;;;;;;;21.23;53.07;101583.28;5112221;28;20030;-64
2022/05/10 08:24:24;;;;;;;21.63;9.70;;;;;;;21.28;52.30;101583.16;5112199;28;20024;-65
2022/05/10 08:26:49;;;;;;;22.27;9.05;;;;;;;21.32;52.91;101581.22;5112747;28;20059;-65
2022/05/10 08:29:15;;;;;;;19.55;9.15;;;;;;;21.27;51.39;101575.13;5111169;28;20561;-65
2022/05/10 08:31:40;;;;;;;20.48;8.93;;;;;;;21.25;51.57;101576.03;5112745;28;20026;-65
2022/05/10 08:34:06;;;;;;;21.38;9.30;;;;;;;21.20;52.70;101577.09;5111732;28;20112;-65
2022/05/10 08:36:32;;;;;;;21.38;8.73;;;;;;;21.24;51.71;101573.41;5112037;28;20051;-65
2022/05/10 08:38:57;;;;;;;20.80;8.77;;;;;;;21.25;51.39;101567.09;5112297;28;20059;-65
2022/05/10 08:41:29;;;;;;;19.98;8.68;;;;;;;21.24;51.11;101568.91;5111420;28;20382;-67
2022/05/10 08:44:13;;;;;;;21.38;8.77;;;;;;;21.32;51.04;101557.94;5110943;28;20030;-68
2022/05/10 08:46:42;;;;;;;20.83;8.95;;;;;;;21.39;50.64;101556.84;5111289;28;20081;-65
2022/05/10 08:49:13;;;;;;;20.65;8.80;;;;;;;21.42;50.45;101551.34;5110867;28;20038;-65
2022/05/10 08:51:38;;;;;;;21.92;9.02;;;;;;;21.50;51.52;101561.88;5112034;28;20090;-65
2022/05/10 08:54:03;;;;;;;21.50;8.43;;;;;;;21.63;50.29;101557.03;5111880;28;20115;-72
2022/05/10 08:56:39;;;;;;;22.00;8.48;;;;;;;21.72;50.71;101561.25;5106691;28;20054;-74
2022/05/10 08:59:09;;;;;;;20.55;8.57;;;;;;;21.75;49.53;101550.41;5108264;28;20047;-69
2022/05/10 09:01:43;;;;;;;19.92;8.43;;;;;;;21.96;48.99;101553.34;5112351;28;20419;-75
2022/05/10 09:04:25;;;;;;;19.98;8.45;;;;;;;22.49;48.65;101553.41;5111734;28;20077;-69
2022/05/10 09:07:09;;;;;;;22.10;8.32;;;;;;;22.87;47.49;101540.38;5111668;28;20482;-66
2022/05/10 09:09:49;;;;;;;20.17;7.75;;;;;;;23.01;46.28;101544.38;5111230;28;20424;-71
2022/05/10 09:12:21;;;;;;;20.05;7.80;;;;;;;23.15;46.20;101556.47;5113865;28;20020;-71
2022/05/10 09:14:59;;;;;;;21.03;8.07;;;;;;;23.19;45.80;101549.13;5115751;28;20028;-70
2022/05/10 09:17:29;;;;;;;21.08;8.45;;;;;;;23.07;44.74;101549.56;5114177;28;20368;-73
2022/05/10 09:19:55;;;;;;;19.92;8.45;;;;;;;23.07;44.54;101541.50;5111850;28;20020;-71
2022/05/10 09:22:47;;;;;;;20.98;8.30;;;;;;;23.25;45.16;101539.94;5113073;28;20103;-74
2022/05/10 09:25:31;;;;;;;20.35;8.52;;;;;;;23.27;44.62;101552.44;5114539;28;20028;-73
2022/05/10 09:27:59;;;;;;;20.05;8.18;;;;;;;23.16;44.96;101535.78;5115012;28;20039;-69
2022/05/10 09:30:30;;;;;;;20.40;8.35;;;;;;;23.08;44.36;101540.53;5114934;28;20023;-74
2022/05/10 09:36:10;;;;;;;21.95;8.85;;;;;;;23.37;44.24;101535.91;5112631;28;20139;-71
2022/05/10 09:38:44;;;;;;;20.83;8.57;;;;;;;23.52;44.82;101535.31;5115222;28;20454;-72
2022/05/10 09:41:36;;;;;;;21.35;8.40;;;;;;;23.79;43.42;101527.91;5115113;28;20027;-72
2022/05/10 09:44:34;;;;;;;23.23;8.73;;;;;;;23.76;44.55;101529.88;5114928;28;20047;-65
2022/05/10 09:47:18;;;;;;;20.33;8.95;;;;;;;23.88;43.30;101526.69;5053523;28;20083;-71
2022/05/10 09:49:44;;;;;;;20.85;8.38;;;;;;;23.43;44.51;101524.84;5052078;28;20051;-66
2022/05/10 09:52:27;;;;;;;19.95;8.38;;;;;;;23.79;43.74;101527.03;5053910;28;20115;-71
2022/05/10 09:54:56;;;;;;;22.50;9.32;;;;;;;24.41;41.93;101529.94;5034162;28;20391;-71
2022/05/10 09:57:30;;;;;;;21.92;8.60;;;;;;;24.66;41.84;101524.38;5052001;28;20057;-67
2022/05/10 09:59:56;;;;;;;21.67;8.38;;;;;;;25.13;41.04;101512.34;5056343;28;20138;-65
2022/05/10 10:02:28;;;;;;;20.63;8.20;;;;;;;25.55;39.57;101514.88;5053653;28;20048;-66
2022/05/10 10:04:53;;;;;;;22.20;8.18;;;;;;;25.93;39.47;101501.31;5048624;28;20083;-65
2022/05/10 10:07:27;;;;;;;20.25;8.18;;;;;;;26.24;39.33;101502.50;5051829;28;20025;-66
2022/05/10 10:10:11;;;;;;;21.52;8.18;;;;;;;26.44;37.40;101506.88;5053345;28;20033;-65
2022/05/10 10:12:40;;;;;;;20.73;8.07;;;;;;;26.54;36.28;101503.69;5051771;28;20033;-64
2022/05/10 10:15:32;;;;;;;22.85;7.70;;;;;;;26.39;37.54;101489.97;5051888;28;20028;-64
2022/05/10 10:17:59;;;;;;;;;;;;;;;26.92;36.33;101488.09;5052520;28;20032;-67
2022/05/10 10:20:36;;;;;;;20.95;7.40;;;;;;;27.25;35.20;101492.63;5051529;28;19920;-65
2022/05/10 10:23:08;;;;;;;20.83;7.35;;;;;;;28.05;34.05;101497.19;5087755;28;20120;-64
2022/05/10 10:25:42;;;;;;;19.70;6.88;;;;;;;28.21;32.81;101483.56;5114984;28;20344;-65
2022/05/10 10:28:29;;;;;;;19.58;6.65;;;;;;;28.23;33.56;101497.97;5114441;28;20042;-67
2022/05/10 10:30:59;;;;;;;19.42;6.85;;;;;;;27.27;33.57;101492.53;5113842;28;20110;-71
2022/05/10 10:33:27;;;;;;;22.55;6.68;;;;;;;26.85;34.17;101494.81;5114702;28;20402;-69
2022/05/10 10:35:55;;;;;;;19.55;6.40;;;;;;;26.86;33.54;101501.13;5114039;28;20378;-70
2022/05/10 10:38:29;;;;;;;20.90;7.15;;;;;;;27.20;33.79;101499.28;5114296;27;20024;-67
2022/05/10 10:41:07;;;;;;;20.17;6.97;;;;;;;27.25;34.73;101487.19;5114695;28;20023;-70
2022/05/10 10:43:58;;;;;;;22.98;6.85;;;;;;;27.85;32.37;101476.63;5110694;28;20035;-69
2022/05/10 10:46:42;;;;;;;19.77;6.88;;;;;;;28.05;33.76;101484.50;5113036;28;20035;-65
2022/05/10 10:49:12;;;;;;;23.58;7.55;;;;;;;27.07;33.63;101486.41;5113873;28;20030;-66
2022/05/10 10:51:37;;;;;;;21.42;6.78;;;;;;;26.58;34.46;101478.19;5111430;28;20023;-64
2022/05/10 10:54:04;;;;;;;20.77;7.30;;;;;;;26.65;35.01;101473.28;5112891;28;20027;-65
2022/05/10 10:56:41;;;;;;;20.52;7.10;;;;;;;26.51;35.06;101476.75;5113892;28;20027;-67
2022/05/10 10:59:24;;;;;;;23.90;7.85;;;;;;;26.09;36.05;101468.91;5110389;28;20054;-64
2022/05/10 11:02:11;;;;;;;19.77;7.18;;;;;;;25.76;36.39;101468.75;5112513;28;20024;-65
2022/05/10 11:05:15;;;;;;;24.60;8.00;;;;;;;25.77;37.37;101469.66;5113944;28;20027;-66
2022/05/10 11:08:08;;;;;;;20.95;7.35;;;;;;;25.77;37.05;101454.28;5047727;28;20450;-65
2022/05/10 11:10:33;;;;;;;19.75;7.75;;;;;;;25.67;35.94;101453.84;5053310;28;20499;-65
2022/05/10 11:13:04;;;;;;;22.37;7.83;;;;;;;25.42;36.68;101456.03;5051094;28;20032;-65
2022/05/10 11:15:36;;;;;;;20.73;7.80;;;;;;;25.47;37.56;101452.16;5049219;28;20283;-66
2022/05/10 11:18:32;;;;;;;20.92;8.00;;;;;;;25.31;37.69;101443.00;5053375;28;20063;-65
2022/05/10 11:21:14;;;;;;;25.90;7.63;;;;;;;25.27;38.44;101446.78;5048278;28;20523;-64
2022/05/10 11:24:20;;;;;;;21.13;7.80;;;;;;;25.22;38.39;101436.16;5051189;28;20128;-64
2022/05/10 11:27:14;;;;;;;22.85;8.00;;;;;;;25.65;38.81;101439.53;5011294;28;20034;-65
2022/05/10 11:30:05;;;;;;;19.85;7.60;;;;;;;26.49;36.24;101446.13;5010261;28;20041;-65
2022/05/10 11:33:02;;;;;;;22.23;7.20;;;;;;;27.90;34.13;101441.91;5012173;28;20471;-67
2022/05/10 11:35:55;;;;;;;22.15;7.95;;;;;;;27.57;33.84;101422.09;5010227;28;20037;-65
2022/05/10 11:38:48;;;;;;;19.45;7.63;;;;;;;27.19;34.11;101437.81;5010623;28;20164;-65